International Virtual Aviation Organisation

Russian Federation and Kazakhstan MCD

 
UWKD 250500Z 14006MPS 4100 -SN OVC006 M02/M03 Q1014 R11/490532 NOSIG RMK QFE750/1000
QNH:(hPa/inHg/mmHg)1014 / 29.94 / 761
QFE:(hPa/inHg/mmHg)999 / 29.49 / 749
Temperature-2
Dew Point-3
Visibility4100
WeatherLight Snow
Cloud CoverOVC (600);
Transition Height900 m./3400 ft.
Transition LevelFL40
SQUAWK